sensor_id;sensor_type;location;lat;lon;timestamp;P1;durP1;ratioP1;P2;durP2;ratioP2
12267;SDS011;6196;48.398;11.736;2022-08-01T00:00:05;5.00;;;3.50;;
12267;SDS011;6196;48.398;11.736;2022-08-01T00:02:38;4.80;;;3.23;;
12267;SDS011;6196;48.398;11.736;2022-08-01T00:05:06;4.20;;;3.20;;
12267;SDS011;6196;48.398;11.736;2022-08-01T00:07:35;4.23;;;3.03;;
12267;SDS011;6196;48.398;11.736;2022-08-01T00:10:03;3.30;;;3.00;;
12267;SDS011;6196;48.398;11.736;2022-08-01T00:12:32;3.27;;;3.00;;
12267;SDS011;6196;48.398;11.736;2022-08-01T00:14:59;4.67;;;3.23;;
12267;SDS011;6196;48.398;11.736;2022-08-01T00:17:26;4.37;;;2.83;;
12267;SDS011;6196;48.398;11.736;2022-08-01T00:19:53;3.00;;;2.80;;
12267;SDS011;6196;48.398;11.736;2022-08-01T00:22:19;3.10;;;2.80;;
12267;SDS011;6196;48.398;11.736;2022-08-01T00:24:46;3.77;;;2.87;;
12267;SDS011;6196;48.398;11.736;2022-08-01T00:27:13;3.30;;;2.83;;
12267;SDS011;6196;48.398;11.736;2022-08-01T00:29:41;3.40;;;3.10;;
12267;SDS011;6196;48.398;11.736;2022-08-01T00:32:30;6.30;;;3.10;;
12267;SDS011;6196;48.398;11.736;2022-08-01T00:34:57;3.23;;;2.90;;
12267;SDS011;6196;48.398;11.736;2022-08-01T00:37:24;3.33;;;3.03;;
12267;SDS011;6196;48.398;11.736;2022-08-01T00:39:51;3.57;;;2.80;;
12267;SDS011;6196;48.398;11.736;2022-08-01T00:42:18;3.37;;;2.87;;
12267;SDS011;6196;48.398;11.736;2022-08-01T00:44:45;2.87;;;2.67;;
12267;SDS011;6196;48.398;11.736;2022-08-01T00:47:12;3.10;;;2.90;;
12267;SDS011;6196;48.398;11.736;2022-08-01T00:49:39;3.87;;;2.87;;
12267;SDS011;6196;48.398;11.736;2022-08-01T00:52:06;3.20;;;3.00;;
12267;SDS011;6196;48.398;11.736;2022-08-01T00:54:35;2.90;;;2.70;;
12267;SDS011;6196;48.398;11.736;2022-08-01T00:57:02;4.07;;;2.80;;
12267;SDS011;6196;48.398;11.736;2022-08-01T00:59:35;3.43;;;2.87;;
12267;SDS011;6196;48.398;11.736;2022-08-01T01:02:06;3.90;;;3.50;;
12267;SDS011;6196;48.398;11.736;2022-08-01T01:04:41;3.07;;;2.77;;
12267;SDS011;6196;48.398;11.736;2022-08-01T01:09:52;3.90;;;3.27;;
12267;SDS011;6196;48.398;11.736;2022-08-01T01:12:30;3.67;;;2.83;;
12267;SDS011;6196;48.398;11.736;2022-08-01T01:15:08;3.70;;;2.70;;
12267;SDS011;6196;48.398;11.736;2022-08-01T01:20:17;3.50;;;3.20;;
12267;SDS011;6196;48.398;11.736;2022-08-01T01:31:54;5.30;;;3.40;;
12267;SDS011;6196;48.398;11.736;2022-08-01T01:34:28;2.90;;;2.70;;
12267;SDS011;6196;48.398;11.736;2022-08-01T01:36:58;3.43;;;3.17;;
12267;SDS011;6196;48.398;11.736;2022-08-01T01:39:28;3.50;;;3.00;;
12267;SDS011;6196;48.398;11.736;2022-08-01T01:41:58;2.50;;;2.30;;
12267;SDS011;6196;48.398;11.736;2022-08-01T01:44:26;3.87;;;3.27;;
12267;SDS011;6196;48.398;11.736;2022-08-01T01:46:54;3.50;;;3.20;;
12267;SDS011;6196;48.398;11.736;2022-08-01T01:49:24;3.50;;;3.20;;
12267;SDS011;6196;48.398;11.736;2022-08-01T01:51:54;4.07;;;3.03;;
12267;SDS011;6196;48.398;11.736;2022-08-01T01:54:28;3.53;;;2.80;;
12267;SDS011;6196;48.398;11.736;2022-08-01T01:57:00;3.10;;;2.80;;
12267;SDS011;6196;48.398;11.736;2022-08-01T01:59:30;3.37;;;3.13;;
12267;SDS011;6196;48.398;11.736;2022-08-01T02:02:02;3.97;;;3.40;;
12267;SDS011;6196;48.398;11.736;2022-08-01T02:04:32;4.50;;;3.10;;
12267;SDS011;6196;48.398;11.736;2022-08-01T02:07:03;3.60;;;3.20;;
12267;SDS011;6196;48.398;11.736;2022-08-01T02:09:32;3.20;;;3.00;;
12267;SDS011;6196;48.398;11.736;2022-08-01T02:12:01;4.60;;;2.97;;
12267;SDS011;6196;48.398;11.736;2022-08-01T02:14:34;4.83;;;3.30;;
12267;SDS011;6196;48.398;11.736;2022-08-01T02:17:03;3.47;;;3.17;;
12267;SDS011;6196;48.398;11.736;2022-08-01T02:19:30;3.57;;;3.27;;
12267;SDS011;6196;48.398;11.736;2022-08-01T02:22:05;3.63;;;3.20;;
12267;SDS011;6196;48.398;11.736;2022-08-01T02:30:31;3.63;;;3.03;;
12267;SDS011;6196;48.398;11.736;2022-08-01T02:33:39;3.83;;;3.50;;
12267;SDS011;6196;48.398;11.736;2022-08-01T02:36:07;3.10;;;2.90;;
12267;SDS011;6196;48.398;11.736;2022-08-01T02:38:54;3.20;;;2.90;;
12267;SDS011;6196;48.398;11.736;2022-08-01T02:41:24;3.20;;;3.00;;
12267;SDS011;6196;48.398;11.736;2022-08-01T02:43:55;4.00;;;3.10;;
12267;SDS011;6196;48.398;11.736;2022-08-01T02:46:28;4.20;;;3.50;;
12267;SDS011;6196;48.398;11.736;2022-08-01T02:49:06;4.20;;;3.50;;
12267;SDS011;6196;48.398;11.736;2022-08-01T02:51:35;3.87;;;3.57;;
12267;SDS011;6196;48.398;11.736;2022-08-01T02:54:03;4.47;;;3.07;;
12267;SDS011;6196;48.398;11.736;2022-08-01T02:56:34;3.30;;;3.10;;
12267;SDS011;6196;48.398;11.736;2022-08-01T02:59:10;4.33;;;3.50;;
12267;SDS011;6196;48.398;11.736;2022-08-01T03:01:46;3.83;;;3.50;;
12267;SDS011;6196;48.398;11.736;2022-08-01T03:04:14;3.37;;;3.10;;
12267;SDS011;6196;48.398;11.736;2022-08-01T03:06:44;3.20;;;2.90;;
12267;SDS011;6196;48.398;11.736;2022-08-01T03:09:12;3.63;;;3.33;;
12267;SDS011;6196;48.398;11.736;2022-08-01T03:11:42;3.50;;;3.30;;
12267;SDS011;6196;48.398;11.736;2022-08-01T03:14:11;3.67;;;3.07;;
12267;SDS011;6196;48.398;11.736;2022-08-01T03:16:40;3.17;;;2.97;;
12267;SDS011;6196;48.398;11.736;2022-08-01T03:19:09;3.50;;;3.20;;
12267;SDS011;6196;48.398;11.736;2022-08-01T03:21:38;3.43;;;3.13;;
12267;SDS011;6196;48.398;11.736;2022-08-01T03:24:07;3.70;;;3.20;;
12267;SDS011;6196;48.398;11.736;2022-08-01T03:26:36;4.50;;;3.57;;
12267;SDS011;6196;48.398;11.736;2022-08-01T03:29:06;3.37;;;3.07;;
12267;SDS011;6196;48.398;11.736;2022-08-01T03:31:37;3.73;;;3.33;;
12267;SDS011;6196;48.398;11.736;2022-08-01T03:34:08;3.57;;;3.20;;
12267;SDS011;6196;48.398;11.736;2022-08-01T03:36:38;5.10;;;3.30;;
12267;SDS011;6196;48.398;11.736;2022-08-01T03:39:19;3.40;;;3.10;;
12267;SDS011;6196;48.398;11.736;2022-08-01T03:41:57;4.03;;;3.73;;
12267;SDS011;6196;48.398;11.736;2022-08-01T03:44:33;4.30;;;3.33;;
12267;SDS011;6196;48.398;11.736;2022-08-01T03:47:08;3.97;;;3.40;;
12267;SDS011;6196;48.398;11.736;2022-08-01T03:49:37;6.03;;;3.30;;
12267;SDS011;6196;48.398;11.736;2022-08-01T03:52:09;3.50;;;3.20;;
12267;SDS011;6196;48.398;11.736;2022-08-01T03:54:37;3.30;;;3.07;;
12267;SDS011;6196;48.398;11.736;2022-08-01T03:57:08;4.17;;;3.20;;
12267;SDS011;6196;48.398;11.736;2022-08-01T03:59:57;3.67;;;3.37;;
12267;SDS011;6196;48.398;11.736;2022-08-01T04:02:26;3.50;;;3.20;;
12267;SDS011;6196;48.398;11.736;2022-08-01T04:04:53;3.50;;;3.20;;
12267;SDS011;6196;48.398;11.736;2022-08-01T04:07:22;3.37;;;3.07;;
12267;SDS011;6196;48.398;11.736;2022-08-01T04:09:55;3.33;;;3.03;;
12267;SDS011;6196;48.398;11.736;2022-08-01T04:12:22;3.53;;;3.23;;
12267;SDS011;6196;48.398;11.736;2022-08-01T04:14:50;4.73;;;3.30;;
12267;SDS011;6196;48.398;11.736;2022-08-01T04:17:17;3.30;;;3.00;;
12267;SDS011;6196;48.398;11.736;2022-08-01T04:19:44;3.33;;;2.90;;
12267;SDS011;6196;48.398;11.736;2022-08-01T04:22:13;3.40;;;3.10;;
12267;SDS011;6196;48.398;11.736;2022-08-01T04:24:42;3.70;;;3.10;;
12267;SDS011;6196;48.398;11.736;2022-08-01T04:27:23;3.40;;;3.10;;
12267;SDS011;6196;48.398;11.736;2022-08-01T04:30:20;4.40;;;3.10;;
12267;SDS011;6196;48.398;11.736;2022-08-01T04:32:54;3.90;;;3.10;;
12267;SDS011;6196;48.398;11.736;2022-08-01T04:35:23;6.33;;;3.47;;
12267;SDS011;6196;48.398;11.736;2022-08-01T04:38:13;3.70;;;3.37;;
12267;SDS011;6196;48.398;11.736;2022-08-01T04:40:49;3.40;;;3.20;;
12267;SDS011;6196;48.398;11.736;2022-08-01T04:43:16;4.30;;;3.13;;
12267;SDS011;6196;48.398;11.736;2022-08-01T04:45:45;4.00;;;2.97;;
12267;SDS011;6196;48.398;11.736;2022-08-01T04:48:15;3.80;;;3.27;;
12267;SDS011;6196;48.398;11.736;2022-08-01T04:50:48;3.27;;;2.93;;
12267;SDS011;6196;48.398;11.736;2022-08-01T04:53:15;5.73;;;2.93;;
12267;SDS011;6196;48.398;11.736;2022-08-01T04:55:45;3.80;;;3.00;;
12267;SDS011;6196;48.398;11.736;2022-08-01T04:58:12;4.13;;;3.00;;
12267;SDS011;6196;48.398;11.736;2022-08-01T05:00:44;3.17;;;2.87;;
12267;SDS011;6196;48.398;11.736;2022-08-01T05:03:12;3.60;;;2.73;;
12267;SDS011;6196;48.398;11.736;2022-08-01T05:05:39;2.90;;;2.70;;
12267;SDS011;6196;48.398;11.736;2022-08-01T05:08:06;3.13;;;2.90;;
12267;SDS011;6196;48.398;11.736;2022-08-01T05:10:33;2.87;;;2.63;;
12267;SDS011;6196;48.398;11.736;2022-08-01T05:13:00;3.23;;;2.93;;
12267;SDS011;6196;48.398;11.736;2022-08-01T05:15:27;4.97;;;2.90;;
12267;SDS011;6196;48.398;11.736;2022-08-01T05:17:54;3.93;;;3.10;;
12267;SDS011;6196;48.398;11.736;2022-08-01T05:20:22;3.17;;;2.87;;
12267;SDS011;6196;48.398;11.736;2022-08-01T05:22:49;4.17;;;3.00;;
12267;SDS011;6196;48.398;11.736;2022-08-01T05:25:16;5.17;;;2.90;;
12267;SDS011;6196;48.398;11.736;2022-08-01T05:28:03;2.97;;;2.70;;
12267;SDS011;6196;48.398;11.736;2022-08-01T05:30:31;4.70;;;2.97;;
12267;SDS011;6196;48.398;11.736;2022-08-01T05:32:58;3.27;;;2.70;;
12267;SDS011;6196;48.398;11.736;2022-08-01T05:35:25;3.13;;;2.83;;
12267;SDS011;6196;48.398;11.736;2022-08-01T05:38:11;3.90;;;2.90;;
12267;SDS011;6196;48.398;11.736;2022-08-01T05:40:40;2.93;;;2.73;;
12267;SDS011;6196;48.398;11.736;2022-08-01T05:43:07;3.00;;;2.77;;
12267;SDS011;6196;48.398;11.736;2022-08-01T05:45:34;3.27;;;2.97;;
12267;SDS011;6196;48.398;11.736;2022-08-01T05:48:00;3.27;;;2.70;;
12267;SDS011;6196;48.398;11.736;2022-08-01T05:50:27;3.47;;;2.80;;
12267;SDS011;6196;48.398;11.736;2022-08-01T05:52:54;3.20;;;2.80;;
12267;SDS011;6196;48.398;11.736;2022-08-01T05:55:21;3.00;;;2.70;;
12267;SDS011;6196;48.398;11.736;2022-08-01T05:57:48;3.00;;;2.80;;
12267;SDS011;6196;48.398;11.736;2022-08-01T06:00:15;4.87;;;2.83;;
12267;SDS011;6196;48.398;11.736;2022-08-01T06:02:42;3.33;;;3.03;;
12267;SDS011;6196;48.398;11.736;2022-08-01T06:05:09;2.90;;;2.70;;
12267;SDS011;6196;48.398;11.736;2022-08-01T06:07:38;2.90;;;2.70;;
12267;SDS011;6196;48.398;11.736;2022-08-01T06:10:06;3.03;;;2.73;;
12267;SDS011;6196;48.398;11.736;2022-08-01T06:12:35;3.30;;;3.00;;
12267;SDS011;6196;48.398;11.736;2022-08-01T06:15:04;5.27;;;3.13;;
12267;SDS011;6196;48.398;11.736;2022-08-01T06:17:31;3.17;;;2.87;;
12267;SDS011;6196;48.398;11.736;2022-08-01T06:19:58;3.07;;;2.80;;
12267;SDS011;6196;48.398;11.736;2022-08-01T06:22:25;3.47;;;2.80;;
12267;SDS011;6196;48.398;11.736;2022-08-01T06:24:53;3.10;;;2.37;;
12267;SDS011;6196;48.398;11.736;2022-08-01T06:27:20;3.90;;;2.60;;
12267;SDS011;6196;48.398;11.736;2022-08-01T06:29:48;4.80;;;2.57;;
12267;SDS011;6196;48.398;11.736;2022-08-01T06:32:19;3.67;;;2.60;;
12267;SDS011;6196;48.398;11.736;2022-08-01T06:34:52;3.10;;;2.80;;
12267;SDS011;6196;48.398;11.736;2022-08-01T06:37:21;3.30;;;2.77;;
12267;SDS011;6196;48.398;11.736;2022-08-01T06:39:47;3.27;;;2.60;;
12267;SDS011;6196;48.398;11.736;2022-08-01T06:42:16;2.90;;;2.63;;
12267;SDS011;6196;48.398;11.736;2022-08-01T06:44:43;3.27;;;2.93;;
12267;SDS011;6196;48.398;11.736;2022-08-01T06:47:10;2.57;;;2.37;;
12267;SDS011;6196;48.398;11.736;2022-08-01T06:49:38;3.33;;;2.30;;
12267;SDS011;6196;48.398;11.736;2022-08-01T06:52:05;3.50;;;2.90;;
12267;SDS011;6196;48.398;11.736;2022-08-01T06:54:32;2.93;;;2.33;;
12267;SDS011;6196;48.398;11.736;2022-08-01T06:56:59;2.50;;;2.30;;
12267;SDS011;6196;48.398;11.736;2022-08-01T06:59:26;4.20;;;2.70;;
12267;SDS011;6196;48.398;11.736;2022-08-01T07:01:53;2.57;;;2.37;;
12267;SDS011;6196;48.398;11.736;2022-08-01T07:04:20;3.23;;;2.37;;
12267;SDS011;6196;48.398;11.736;2022-08-01T07:06:47;4.60;;;2.20;;
12267;SDS011;6196;48.398;11.736;2022-08-01T07:09:14;2.57;;;2.33;;
12267;SDS011;6196;48.398;11.736;2022-08-01T07:11:41;2.20;;;2.00;;
12267;SDS011;6196;48.398;11.736;2022-08-01T07:14:08;3.73;;;2.40;;
12267;SDS011;6196;48.398;11.736;2022-08-01T07:16:35;2.50;;;2.30;;
12267;SDS011;6196;48.398;11.736;2022-08-01T07:19:02;3.57;;;2.80;;
12267;SDS011;6196;48.398;11.736;2022-08-01T07:21:29;2.53;;;2.33;;
12267;SDS011;6196;48.398;11.736;2022-08-01T07:24:07;2.57;;;2.37;;
12267;SDS011;6196;48.398;11.736;2022-08-01T07:26:42;3.23;;;2.50;;
12267;SDS011;6196;48.398;11.736;2022-08-01T07:29:20;2.50;;;2.30;;
12267;SDS011;6196;48.398;11.736;2022-08-01T07:31:48;2.80;;;2.60;;
12267;SDS011;6196;48.398;11.736;2022-08-01T07:34:16;5.80;;;2.73;;
12267;SDS011;6196;48.398;11.736;2022-08-01T07:36:43;3.27;;;2.50;;
12267;SDS011;6196;48.398;11.736;2022-08-01T07:39:10;4.47;;;2.60;;
12267;SDS011;6196;48.398;11.736;2022-08-01T07:41:37;2.67;;;2.23;;
12267;SDS011;6196;48.398;11.736;2022-08-01T07:44:24;2.53;;;2.30;;
12267;SDS011;6196;48.398;11.736;2022-08-01T07:46:54;2.70;;;2.50;;
12267;SDS011;6196;48.398;11.736;2022-08-01T07:49:21;3.22;;;2.50;;
12267;SDS011;6196;48.398;11.736;2022-08-01T07:51:48;3.63;;;2.45;;
12267;SDS011;6196;48.398;11.736;2022-08-01T07:54:35;2.50;;;2.30;;
12267;SDS011;6196;48.398;11.736;2022-08-01T07:57:03;3.10;;;2.28;;
12267;SDS011;6196;48.398;11.736;2022-08-01T07:59:30;2.67;;;2.42;;
12267;SDS011;6196;48.398;11.736;2022-08-01T08:01:57;2.30;;;2.15;;
12267;SDS011;6196;48.398;11.736;2022-08-01T08:04:25;3.10;;;2.38;;
12267;SDS011;6196;48.398;11.736;2022-08-01T08:06:53;2.65;;;2.40;;
12267;SDS011;6196;48.398;11.736;2022-08-01T08:09:20;2.75;;;2.55;;
12267;SDS011;6196;48.398;11.736;2022-08-01T08:11:48;2.65;;;2.42;;
12267;SDS011;6196;48.398;11.736;2022-08-01T08:14:16;4.90;;;2.60;;
12267;SDS011;6196;48.398;11.736;2022-08-01T08:16:43;2.70;;;2.50;;
12267;SDS011;6196;48.398;11.736;2022-08-01T08:19:11;3.28;;;2.33;;
12267;SDS011;6196;48.398;11.736;2022-08-01T08:21:38;2.83;;;2.60;;
12267;SDS011;6196;48.398;11.736;2022-08-01T08:24:06;4.22;;;2.58;;
12267;SDS011;6196;48.398;11.736;2022-08-01T08:26:56;3.20;;;2.92;;
12267;SDS011;6196;48.398;11.736;2022-08-01T08:29:27;3.05;;;2.50;;
12267;SDS011;6196;48.398;11.736;2022-08-01T08:31:59;2.88;;;2.60;;
12267;SDS011;6196;48.398;11.736;2022-08-01T08:34:27;5.00;;;2.58;;
12267;SDS011;6196;48.398;11.736;2022-08-01T08:36:55;6.63;;;2.50;;
12267;SDS011;6196;48.398;11.736;2022-08-01T08:39:24;3.05;;;2.78;;
12267;SDS011;6196;48.398;11.736;2022-08-01T08:41:52;5.30;;;2.78;;
12267;SDS011;6196;48.398;11.736;2022-08-01T08:44:19;2.60;;;2.35;;
12267;SDS011;6196;48.398;11.736;2022-08-01T08:46:47;3.25;;;2.95;;
12267;SDS011;6196;48.398;11.736;2022-08-01T08:49:23;6.28;;;3.10;;
12267;SDS011;6196;48.398;11.736;2022-08-01T08:52:01;7.00;;;2.70;;
12267;SDS011;6196;48.398;11.736;2022-08-01T08:54:34;2.80;;;2.50;;
12267;SDS011;6196;48.398;11.736;2022-08-01T08:57:03;2.80;;;2.60;;
12267;SDS011;6196;48.398;11.736;2022-08-01T08:59:31;5.20;;;3.25;;
12267;SDS011;6196;48.398;11.736;2022-08-01T09:01:58;4.85;;;2.60;;
12267;SDS011;6196;48.398;11.736;2022-08-01T09:04:25;2.70;;;2.50;;
12267;SDS011;6196;48.398;11.736;2022-08-01T09:06:53;3.67;;;2.65;;
12267;SDS011;6196;48.398;11.736;2022-08-01T09:09:21;2.80;;;2.28;;
12267;SDS011;6196;48.398;11.736;2022-08-01T09:11:48;2.85;;;2.63;;
12267;SDS011;6196;48.398;11.736;2022-08-01T09:14:31;4.65;;;2.33;;
12267;SDS011;6196;48.398;11.736;2022-08-01T09:17:08;2.67;;;2.47;;
12267;SDS011;6196;48.398;11.736;2022-08-01T09:22:13;3.17;;;2.53;;
12267;SDS011;6196;48.398;11.736;2022-08-01T09:25:03;3.30;;;2.35;;
12267;SDS011;6196;48.398;11.736;2022-08-01T09:27:34;2.42;;;2.22;;
12267;SDS011;6196;48.398;11.736;2022-08-01T09:30:12;2.83;;;2.50;;
12267;SDS011;6196;48.398;11.736;2022-08-01T09:33:09;3.80;;;2.50;;
12267;SDS011;6196;48.398;11.736;2022-08-01T09:35:53;2.97;;;2.40;;
12267;SDS011;6196;48.398;11.736;2022-08-01T09:38:23;2.90;;;2.63;;
12267;SDS011;6196;48.398;11.736;2022-08-01T09:40:56;2.63;;;2.42;;
12267;SDS011;6196;48.398;11.736;2022-08-01T09:43:27;2.20;;;2.00;;
12267;SDS011;6196;48.398;11.736;2022-08-01T09:45:57;3.90;;;2.50;;
12267;SDS011;6196;48.398;11.736;2022-08-01T09:48:26;3.45;;;2.35;;
12267;SDS011;6196;48.398;11.736;2022-08-01T09:50:55;2.22;;;2.13;;
12267;SDS011;6196;48.398;11.736;2022-08-01T09:53:39;2.65;;;2.17;;
12267;SDS011;6196;48.398;11.736;2022-08-01T09:56:19;4.28;;;2.38;;
12267;SDS011;6196;48.398;11.736;2022-08-01T09:58:48;2.10;;;2.00;;
12267;SDS011;6196;48.398;11.736;2022-08-01T10:01:25;4.10;;;2.58;;
12267;SDS011;6196;48.398;11.736;2022-08-01T10:04:04;4.63;;;2.08;;
12267;SDS011;6196;48.398;11.736;2022-08-01T10:06:41;2.33;;;2.08;;
12267;SDS011;6196;48.398;11.736;2022-08-01T10:09:28;2.50;;;2.30;;
12267;SDS011;6196;48.398;11.736;2022-08-01T10:12:06;2.58;;;2.38;;
12267;SDS011;6196;48.398;11.736;2022-08-01T10:14:41;2.72;;;2.20;;
12267;SDS011;6196;48.398;11.736;2022-08-01T10:17:12;2.70;;;2.42;;
12267;SDS011;6196;48.398;11.736;2022-08-01T10:19:45;3.35;;;2.25;;
12267;SDS011;6196;48.398;11.736;2022-08-01T10:22:16;5.88;;;2.05;;
12267;SDS011;6196;48.398;11.736;2022-08-01T10:24:47;3.45;;;2.10;;
12267;SDS011;6196;48.398;11.736;2022-08-01T10:27:16;2.40;;;2.20;;
12267;SDS011;6196;48.398;11.736;2022-08-01T10:30:02;2.85;;;2.00;;
12267;SDS011;6196;48.398;11.736;2022-08-01T10:32:49;2.92;;;2.10;;
12267;SDS011;6196;48.398;11.736;2022-08-01T10:35:20;2.40;;;2.20;;
12267;SDS011;6196;48.398;11.736;2022-08-01T10:38:08;2.55;;;2.35;;
12267;SDS011;6196;48.398;11.736;2022-08-01T10:40:39;3.05;;;2.05;;
12267;SDS011;6196;48.398;11.736;2022-08-01T10:43:11;2.38;;;2.05;;
12267;SDS011;6196;48.398;11.736;2022-08-01T10:45:47;2.63;;;2.42;;
12267;SDS011;6196;48.398;11.736;2022-08-01T10:48:21;9.95;;;2.88;;
12267;SDS011;6196;48.398;11.736;2022-08-01T10:51:08;2.40;;;2.20;;
12267;SDS011;6196;48.398;11.736;2022-08-01T10:53:51;2.42;;;2.20;;
12267;SDS011;6196;48.398;11.736;2022-08-01T10:56:22;3.08;;;2.35;;
12267;SDS011;6196;48.398;11.736;2022-08-01T10:59:00;3.20;;;2.03;;
12267;SDS011;6196;48.398;11.736;2022-08-01T11:01:36;2.53;;;1.83;;
12267;SDS011;6196;48.398;11.736;2022-08-01T11:04:11;2.15;;;1.95;;
12267;SDS011;6196;48.398;11.736;2022-08-01T11:06:46;3.05;;;2.42;;
12267;SDS011;6196;48.398;11.736;2022-08-01T11:09:24;2.20;;;1.88;;
12267;SDS011;6196;48.398;11.736;2022-08-01T11:12:17;2.20;;;2.00;;
12267;SDS011;6196;48.398;11.736;2022-08-01T11:20:15;3.03;;;1.80;;
12267;SDS011;6196;48.398;11.736;2022-08-01T11:28:24;2.72;;;1.80;;
12267;SDS011;6196;48.398;11.736;2022-08-01T11:41:39;2.88;;;1.38;;
12267;SDS011;6196;48.398;11.736;2022-08-01T11:44:17;1.23;;;1.10;;
12267;SDS011;6196;48.398;11.736;2022-08-01T11:47:04;2.15;;;1.20;;
12267;SDS011;6196;48.398;11.736;2022-08-01T11:54:49;1.67;;;1.23;;
12267;SDS011;6196;48.398;11.736;2022-08-01T11:57:23;3.60;;;1.45;;
12267;SDS011;6196;48.398;11.736;2022-08-01T12:00:00;1.10;;;1.00;;
12267;SDS011;6196;48.398;11.736;2022-08-01T12:02:40;1.10;;;1.00;;
12267;SDS011;6196;48.398;11.736;2022-08-01T12:05:11;2.00;;;1.17;;
12267;SDS011;6196;48.398;11.736;2022-08-01T12:07:41;2.88;;;1.15;;
12267;SDS011;6196;48.398;11.736;2022-08-01T12:10:13;2.70;;;1.10;;
12267;SDS011;6196;48.398;11.736;2022-08-01T12:12:43;3.15;;;1.27;;
12267;SDS011;6196;48.398;11.736;2022-08-01T12:15:13;1.20;;;1.10;;
12267;SDS011;6196;48.398;11.736;2022-08-01T12:17:46;1.88;;;1.00;;
12267;SDS011;6196;48.398;11.736;2022-08-01T12:20:26;1.60;;;1.02;;
12267;SDS011;6196;48.398;11.736;2022-08-01T12:22:57;1.58;;;0.93;;
12267;SDS011;6196;48.398;11.736;2022-08-01T12:25:34;1.15;;;1.05;;
12267;SDS011;6196;48.398;11.736;2022-08-01T12:28:03;1.60;;;1.27;;
12267;SDS011;6196;48.398;11.736;2022-08-01T12:30:32;1.17;;;1.08;;
12267;SDS011;6196;48.398;11.736;2022-08-01T12:33:06;3.30;;;1.08;;
12267;SDS011;6196;48.398;11.736;2022-08-01T12:35:36;1.98;;;1.23;;
12267;SDS011;6196;48.398;11.736;2022-08-01T12:38:17;1.55;;;1.10;;
12267;SDS011;6196;48.398;11.736;2022-08-01T12:40:49;3.72;;;1.15;;
12267;SDS011;6196;48.398;11.736;2022-08-01T12:43:20;2.58;;;1.40;;
12267;SDS011;6196;48.398;11.736;2022-08-01T12:45:54;1.85;;;1.25;;
12267;SDS011;6196;48.398;11.736;2022-08-01T12:48:24;4.75;;;1.50;;
12267;SDS011;6196;48.398;11.736;2022-08-01T12:50:52;1.17;;;1.08;;
12267;SDS011;6196;48.398;11.736;2022-08-01T12:53:20;3.03;;;1.17;;
12267;SDS011;6196;48.398;11.736;2022-08-01T12:55:53;1.70;;;1.20;;
12267;SDS011;6196;48.398;11.736;2022-08-01T12:58:29;1.48;;;1.33;;
12267;SDS011;6196;48.398;11.736;2022-08-01T13:01:07;2.67;;;1.52;;
12267;SDS011;6196;48.398;11.736;2022-08-01T13:03:36;1.13;;;1.00;;
12267;SDS011;6196;48.398;11.736;2022-08-01T13:06:10;2.15;;;1.30;;
12267;SDS011;6196;48.398;11.736;2022-08-01T13:08:40;1.85;;;1.10;;
12267;SDS011;6196;48.398;11.736;2022-08-01T13:11:09;2.83;;;1.35;;
12267;SDS011;6196;48.398;11.736;2022-08-01T13:13:44;1.63;;;1.05;;
12267;SDS011;6196;48.398;11.736;2022-08-01T13:16:17;4.72;;;1.38;;
12267;SDS011;6196;48.398;11.736;2022-08-01T13:18:59;1.30;;;1.20;;
12267;SDS011;6196;48.398;11.736;2022-08-01T13:21:28;2.47;;;1.30;;
12267;SDS011;6196;48.398;11.736;2022-08-01T13:24:22;1.40;;;1.10;;
12267;SDS011;6196;48.398;11.736;2022-08-01T13:26:58;1.30;;;1.20;;
12267;SDS011;6196;48.398;11.736;2022-08-01T13:29:33;2.05;;;1.30;;
12267;SDS011;6196;48.398;11.736;2022-08-01T13:32:13;2.33;;;1.42;;
12267;SDS011;6196;48.398;11.736;2022-08-01T13:35:02;2.75;;;1.40;;
12267;SDS011;6196;48.398;11.736;2022-08-01T13:37:35;2.15;;;1.58;;
12267;SDS011;6196;48.398;11.736;2022-08-01T13:40:04;3.15;;;1.30;;
12267;SDS011;6196;48.398;11.736;2022-08-01T13:42:33;2.75;;;1.50;;
12267;SDS011;6196;48.398;11.736;2022-08-01T13:45:00;3.10;;;1.70;;
12267;SDS011;6196;48.398;11.736;2022-08-01T13:47:29;2.75;;;1.55;;
12267;SDS011;6196;48.398;11.736;2022-08-01T13:49:58;3.65;;;1.88;;
12267;SDS011;6196;48.398;11.736;2022-08-01T13:52:29;5.55;;;1.85;;
12267;SDS011;6196;48.398;11.736;2022-08-01T13:54:57;1.92;;;1.50;;
12267;SDS011;6196;48.398;11.736;2022-08-01T13:57:26;3.47;;;1.70;;
12267;SDS011;6196;48.398;11.736;2022-08-01T14:00:03;3.20;;;1.92;;
12267;SDS011;6196;48.398;11.736;2022-08-01T14:02:33;2.78;;;1.75;;
12267;SDS011;6196;48.398;11.736;2022-08-01T14:05:00;1.85;;;1.50;;
12267;SDS011;6196;48.398;11.736;2022-08-01T14:07:27;3.60;;;1.98;;
12267;SDS011;6196;48.398;11.736;2022-08-01T14:09:55;2.83;;;1.67;;
12267;SDS011;6196;48.398;11.736;2022-08-01T14:12:42;3.70;;;1.60;;
12267;SDS011;6196;48.398;11.736;2022-08-01T14:15:11;2.13;;;1.60;;
12267;SDS011;6196;48.398;11.736;2022-08-01T14:17:38;6.03;;;1.80;;
12267;SDS011;6196;48.398;11.736;2022-08-01T14:20:13;2.28;;;1.42;;
12267;SDS011;6196;48.398;11.736;2022-08-01T14:22:40;2.38;;;1.70;;
12267;SDS011;6196;48.398;11.736;2022-08-01T14:25:07;6.28;;;1.73;;
12267;SDS011;6196;48.398;11.736;2022-08-01T14:27:34;2.90;;;1.70;;
12267;SDS011;6196;48.398;11.736;2022-08-01T14:30:03;2.97;;;1.90;;
12267;SDS011;6196;48.398;11.736;2022-08-01T14:32:30;4.60;;;1.90;;
12267;SDS011;6196;48.398;11.736;2022-08-01T14:35:00;3.87;;;1.40;;
12267;SDS011;6196;48.398;11.736;2022-08-01T14:37:29;8.67;;;2.07;;
12267;SDS011;6196;48.398;11.736;2022-08-01T14:40:03;2.93;;;1.80;;
12267;SDS011;6196;48.398;11.736;2022-08-01T14:42:35;2.50;;;1.60;;
12267;SDS011;6196;48.398;11.736;2022-08-01T14:45:04;2.37;;;1.70;;
12267;SDS011;6196;48.398;11.736;2022-08-01T14:47:38;4.43;;;1.80;;
12267;SDS011;6196;48.398;11.736;2022-08-01T14:50:11;2.13;;;1.87;;
12267;SDS011;6196;48.398;11.736;2022-08-01T14:52:41;3.40;;;1.80;;
12267;SDS011;6196;48.398;11.736;2022-08-01T14:55:10;2.63;;;1.77;;
12267;SDS011;6196;48.398;11.736;2022-08-01T14:57:38;2.73;;;1.80;;
12267;SDS011;6196;48.398;11.736;2022-08-01T15:00:07;2.80;;;1.80;;
12267;SDS011;6196;48.398;11.736;2022-08-01T15:02:38;3.97;;;1.70;;
12267;SDS011;6196;48.398;11.736;2022-08-01T15:05:06;2.90;;;1.90;;
12267;SDS011;6196;48.398;11.736;2022-08-01T15:07:34;2.53;;;1.93;;
12267;SDS011;6196;48.398;11.736;2022-08-01T15:10:17;3.83;;;1.83;;
12267;SDS011;6196;48.398;11.736;2022-08-01T15:12:44;3.20;;;1.60;;
12267;SDS011;6196;48.398;11.736;2022-08-01T15:15:15;1.87;;;1.77;;
12267;SDS011;6196;48.398;11.736;2022-08-01T15:17:43;2.03;;;1.90;;
12267;SDS011;6196;48.398;11.736;2022-08-01T15:20:11;2.50;;;1.70;;
12267;SDS011;6196;48.398;11.736;2022-08-01T15:22:38;3.27;;;1.80;;
12267;SDS011;6196;48.398;11.736;2022-08-01T15:25:04;3.97;;;1.77;;
12267;SDS011;6196;48.398;11.736;2022-08-01T15:27:32;3.03;;;1.60;;
12267;SDS011;6196;48.398;11.736;2022-08-01T15:29:59;2.60;;;1.97;;
12267;SDS011;6196;48.398;11.736;2022-08-01T15:32:25;4.80;;;2.00;;
12267;SDS011;6196;48.398;11.736;2022-08-01T15:34:52;3.57;;;1.73;;
12267;SDS011;6196;48.398;11.736;2022-08-01T15:37:20;1.90;;;1.57;;
12267;SDS011;6196;48.398;11.736;2022-08-01T15:39:47;4.93;;;1.57;;
12267;SDS011;6196;48.398;11.736;2022-08-01T15:42:19;2.27;;;1.73;;
12267;SDS011;6196;48.398;11.736;2022-08-01T15:44:52;1.60;;;1.50;;
12267;SDS011;6196;48.398;11.736;2022-08-01T15:47:19;2.20;;;1.70;;
12267;SDS011;6196;48.398;11.736;2022-08-01T15:49:50;5.90;;;1.73;;
12267;SDS011;6196;48.398;11.736;2022-08-01T15:52:17;4.80;;;1.80;;
12267;SDS011;6196;48.398;11.736;2022-08-01T15:54:48;1.53;;;1.30;;
12267;SDS011;6196;48.398;11.736;2022-08-01T15:57:15;1.83;;;1.50;;
12267;SDS011;6196;48.398;11.736;2022-08-01T15:59:42;1.70;;;1.60;;
12267;SDS011;6196;48.398;11.736;2022-08-01T16:02:09;2.40;;;1.23;;